Time;durP1;ratioP1;P1;durP2;ratioP2;P2;SDS_P1;SDS_P2;PMS_P1;PMS_P2;Temp;Humidity;BMP_temperature;BMP_pressure;BME280_temperature;BME280_humidity;BME280_pressure;Samples;Min_cycle;Max_cycle;Signal;HPM_P1;HPM_P2
2022/08/01 00:01:36;;;;;;;2.53;1.40;;;;;;;;;;6098061;23;20006;-72
2022/08/01 00:04:03;;;;;;;2.08;1.30;;;;;;;;;;6098714;23;20003;-72
2022/08/01 00:06:29;;;;;;;2.50;1.40;;;;;;;;;;6097316;23;20010;-72
2022/08/01 00:08:55;;;;;;;1.70;1.25;;;;;;;;;;6098534;23;20013;-72
2022/08/01 00:11:21;;;;;;;2.40;1.15;;;;;;;;;;6098142;23;20014;-72
2022/08/01 00:13:48;;;;;;;1.75;1.35;;;;;;;;;;6098635;23;20026;-72
2022/08/01 00:16:14;;;;;;;2.80;1.20;;;;;;;;;;6097956;23;20426;-72
2022/08/01 00:18:40;;;;;;;2.47;1.30;;;;;;;;;;6098307;23;20033;-72
2022/08/01 00:21:06;;;;;;;2.35;1.20;;;;;;;;;;6097383;23;20022;-72
2022/08/01 00:23:32;;;;;;;1.30;1.20;;;;;;;;;;6098277;23;20010;-72
2022/08/01 00:25:58;;;;;;;1.85;1.38;;;;;;;;;;6097906;23;20010;-72
2022/08/01 00:28:24;;;;;;;3.45;1.17;;;;;;;;;;6097479;23;20399;-72
2022/08/01 00:30:50;;;;;;;1.23;1.10;;;;;;;;;;6098231;23;20006;-72
2022/08/01 00:33:17;;;;;;;3.00;1.17;;;;;;;;;;6097931;23;20073;-72
2022/08/01 00:35:43;;;;;;;1.73;1.10;;;;;;;;;;6097594;23;20037;-72
2022/08/01 00:38:10;;;;;;;3.28;1.48;;;;;;;;;;6097860;23;20034;-72
2022/08/01 00:40:37;;;;;;;1.20;1.10;;;;;;;;;;6097939;23;20006;-72
2022/08/01 00:43:03;;;;;;;1.65;1.02;;;;;;;;;;6097546;23;20507;-72
2022/08/01 00:45:29;;;;;;;4.00;1.35;;;;;;;;;;6097482;23;20002;-72
2022/08/01 00:47:55;;;;;;;2.05;1.38;;;;;;;;;;6098094;23;20037;-72
2022/08/01 00:50:21;;;;;;;3.25;1.63;;;;;;;;;;6097324;23;20013;-72
2022/08/01 00:52:48;;;;;;;3.75;1.33;;;;;;;;;;6097823;23;20009;-72
2022/08/01 00:55:14;;;;;;;1.27;1.17;;;;;;;;;;6097472;23;20103;-72
2022/08/01 00:57:41;;;;;;;2.20;1.20;;;;;;;;;;6097825;23;20017;-72
2022/08/01 01:00:07;;;;;;;4.63;1.27;;;;;;;;;;6097601;23;20081;-72
2022/08/01 01:02:34;;;;;;;2.47;1.20;;;;;;;;;;6097760;23;20077;-72
2022/08/01 01:05:01;;;;;;;1.63;1.20;;;;;;;;;;6097138;23;20002;-72
2022/08/01 01:07:35;;;;;;;1.95;1.33;;;;;;;;;;6098031;23;20081;-72
2022/08/01 01:10:12;;;;;;;3.75;1.33;;;;;;;;;;6098292;23;20056;-72
2022/08/01 01:12:47;;;;;;;2.17;1.27;;;;;;;;;;6098150;23;20010;-72
2022/08/01 01:15:23;;;;;;;1.88;1.52;;;;;;;;;;6098206;23;19999;-72
2022/08/01 01:17:53;;;;;;;2.10;1.27;;;;;;;;;;6098040;23;20493;-72
2022/08/01 01:20:21;;;;;;;2.90;1.20;;;;;;;;;;6098898;23;20382;-72
2022/08/01 01:23:07;;;;;;;1.77;1.40;;;;;;;;;;6099090;23;20077;-72
2022/08/01 01:25:40;;;;;;;1.40;1.30;;;;;;;;;;6099531;23;20002;-72
2022/08/01 01:28:09;;;;;;;4.07;1.45;;;;;;;;;;6099502;23;20450;-72
2022/08/01 01:30:36;;;;;;;1.55;1.20;;;;;;;;;;6099721;23;20029;-72
2022/08/01 01:33:04;;;;;;;3.03;1.48;;;;;;;;;;6099459;23;20006;-72
2022/08/01 01:35:36;;;;;;;2.65;1.10;;;;;;;;;;6099009;23;20002;-72
2022/08/01 01:38:05;;;;;;;1.52;1.40;;;;;;;;;;6100102;23;20014;-72
2022/08/01 01:40:31;;;;;;;1.40;1.27;;;;;;;;;;6099504;23;20002;-72
2022/08/01 01:42:58;;;;;;;1.15;1.10;;;;;;;;;;6099346;23;20013;-72
2022/08/01 01:45:24;;;;;;;1.33;1.13;;;;;;;;;;6099291;23;20494;-72
2022/08/01 01:47:51;;;;;;;3.58;1.77;;;;;;;;;;6099204;23;20015;-72
2022/08/01 01:50:20;;;;;;;2.30;1.33;;;;;;;;;;6099568;23;19998;-72
2022/08/01 01:52:47;;;;;;;1.40;1.30;;;;;;;;;;6099314;23;20006;-72
2022/08/01 01:55:14;;;;;;;1.40;1.30;;;;;;;;;;6099280;23;20430;-72
2022/08/01 01:57:41;;;;;;;2.15;1.25;;;;;;;;;;6099375;23;20132;-72
2022/08/01 02:00:08;;;;;;;1.73;1.13;;;;;;;;;;6099164;23;20073;-72
2022/08/01 02:02:36;;;;;;;2.30;1.30;;;;;;;;;;6099120;23;20014;-72
2022/08/01 02:05:03;;;;;;;2.22;1.30;;;;;;;;;;6098951;23;20002;-72
2022/08/01 02:07:29;;;;;;;6.43;1.33;;;;;;;;;;6099039;23;20014;-72
2022/08/01 02:09:57;;;;;;;1.75;1.50;;;;;;;;;;6099186;23;20006;-72
2022/08/01 02:12:24;;;;;;;2.15;1.60;;;;;;;;;;6099043;23;20452;-72
2022/08/01 02:14:53;;;;;;;2.08;1.48;;;;;;;;;;6098674;23;20013;-72
2022/08/01 02:17:20;;;;;;;2.58;1.35;;;;;;;;;;6099020;23;20013;-72
2022/08/01 02:19:46;;;;;;;2.67;1.30;;;;;;;;;;6099572;23;20074;-72
2022/08/01 02:22:13;;;;;;;1.67;1.40;;;;;;;;;;6099055;23;20018;-72
2022/08/01 02:24:39;;;;;;;1.63;1.25;;;;;;;;;;6098932;23;20013;-72
2022/08/01 02:27:16;;;;;;;4.18;1.48;;;;;;;;;;6098853;23;20041;-72
2022/08/01 02:30:08;;;;;;;2.08;1.35;;;;;;;;;;6099054;23;20025;-72
2022/08/01 02:32:43;;;;;;;2.10;1.13;;;;;;;;;;6096066;23;20018;-72
2022/08/01 02:35:14;;;;;;;4.68;1.63;;;;;;;;;;6098554;23;20007;-72
2022/08/01 02:37:42;;;;;;;4.50;1.40;;;;;;;;;;6098372;23;20017;-72
2022/08/01 02:40:09;;;;;;;4.47;1.70;;;;;;;;;;6098871;23;20002;-72
2022/08/01 02:42:36;;;;;;;1.42;1.33;;;;;;;;;;6098344;23;20006;-72
2022/08/01 02:45:03;;;;;;;2.95;1.40;;;;;;;;;;6098375;23;20453;-72
2022/08/01 02:47:29;;;;;;;2.35;1.50;;;;;;;;;;6098948;23;20011;-72
2022/08/01 02:49:56;;;;;;;2.80;1.35;;;;;;;;;;6098211;23;20002;-72
2022/08/01 02:52:24;;;;;;;2.00;1.30;;;;;;;;;;6098291;23;20068;-72
2022/08/01 02:54:52;;;;;;;2.90;1.40;;;;;;;;;;6099178;23;20062;-72
2022/08/01 02:57:18;;;;;;;3.47;1.52;;;;;;;;;;6098591;23;20029;-72
2022/08/01 02:59:45;;;;;;;2.67;1.40;;;;;;;;;;6098588;23;20002;-72
2022/08/01 03:02:12;;;;;;;1.60;1.50;;;;;;;;;;6099200;23;20077;-72
2022/08/01 03:04:39;;;;;;;1.52;1.30;;;;;;;;;;6097963;23;20073;-72
2022/08/01 03:07:06;;;;;;;2.03;1.23;;;;;;;;;;6098077;23;20021;-72
2022/08/01 03:09:33;;;;;;;3.05;1.42;;;;;;;;;;6098840;23;19999;-72
2022/08/01 03:12:01;;;;;;;3.60;1.40;;;;;;;;;;6098484;23;20073;-72
2022/08/01 03:14:28;;;;;;;1.65;1.20;;;;;;;;;;6098615;23;20026;-72
2022/08/01 03:16:55;;;;;;;3.55;1.70;;;;;;;;;;6098339;23;20010;-72
2022/08/01 03:19:23;;;;;;;2.60;1.40;;;;;;;;;;6098889;23;20009;-72
2022/08/01 03:21:50;;;;;;;6.78;1.60;;;;;;;;;;6098372;23;20085;-72
2022/08/01 03:24:17;;;;;;;3.20;1.60;;;;;;;;;;6098673;23;20431;-72
2022/08/01 03:26:44;;;;;;;10.23;1.70;;;;;;;;;;6098224;23;20009;-72
2022/08/01 03:29:13;;;;;;;3.17;1.25;;;;;;;;;;6098367;23;20430;-72
2022/08/01 03:31:42;;;;;;;6.57;1.70;;;;;;;;;;6098233;23;20011;-72
2022/08/01 03:34:09;;;;;;;3.17;1.33;;;;;;;;;;6098290;23;20018;-72
2022/08/01 03:36:37;;;;;;;3.38;1.67;;;;;;;;;;6097677;23;20006;-72
2022/08/01 03:39:03;;;;;;;3.85;1.58;;;;;;;;;;6098238;23;20006;-72
2022/08/01 03:41:33;;;;;;;2.55;1.45;;;;;;;;;;6097661;23;20002;-72
2022/08/01 03:44:02;;;;;;;1.95;1.20;;;;;;;;;;6098827;23;20043;-72
2022/08/01 03:46:35;;;;;;;2.25;1.58;;;;;;;;;;6098237;23;20006;-72
2022/08/01 03:49:03;;;;;;;1.75;1.25;;;;;;;;;;6098901;23;20017;-72
2022/08/01 03:51:30;;;;;;;2.20;1.50;;;;;;;;;;6120879;23;20411;-72
2022/08/01 03:53:56;;;;;;;1.95;1.50;;;;;;;;;;6098174;23;20041;-72
2022/08/01 03:56:23;;;;;;;4.22;1.33;;;;;;;;;;6098123;23;20009;-72
2022/08/01 03:58:49;;;;;;;3.92;1.70;;;;;;;;;;6098345;23;20426;-72
2022/08/01 04:01:16;;;;;;;3.47;1.50;;;;;;;;;;6098266;23;20002;-72
2022/08/01 04:03:43;;;;;;;5.15;1.80;;;;;;;;;;6097716;23;20029;-72
2022/08/01 04:09:01;;;;;;;1.63;1.40;;;;;;;;;;6143336;23;20437;-73
2022/08/01 04:11:28;;;;;;;1.92;1.40;;;;;;;;;;6136639;23;21018;-72
2022/08/01 04:13:55;;;;;;;3.72;1.40;;;;;;;;;;6156856;23;20006;-72
2022/08/01 04:16:22;;;;;;;2.95;1.80;;;;;;;;;;6156796;23;20009;-72
2022/08/01 04:18:49;;;;;;;2.25;1.38;;;;;;;;;;6156760;23;20005;-72
2022/08/01 04:21:18;;;;;;;5.63;1.73;;;;;;;;;;6156679;23;20008;-72
2022/08/01 04:26:23;;;;;;;2.95;1.63;;;;;;;;;;6155099;23;20087;-73
2022/08/01 04:28:50;;;;;;;2.85;1.65;;;;;;;;;;6154639;23;20424;-73
2022/08/01 04:31:17;;;;;;;7.15;2.25;;;;;;;;;;6155187;23;20009;-73
2022/08/01 04:33:46;;;;;;;3.60;1.80;;;;;;;;;;6154871;23;20469;-73
2022/08/01 04:36:14;;;;;;;2.47;1.38;;;;;;;;;;6154783;23;20021;-73
2022/08/01 04:38:42;;;;;;;3.85;1.48;;;;;;;;;;6155164;23;20005;-73
2022/08/01 04:41:10;;;;;;;4.63;1.67;;;;;;;;;;6154667;23;20012;-73
2022/08/01 04:43:37;;;;;;;5.97;1.90;;;;;;;;;;6154934;23;20002;-73
2022/08/01 04:46:03;;;;;;;3.03;1.67;;;;;;;;;;6154798;23;20006;-73
2022/08/01 04:48:30;;;;;;;6.93;2.05;;;;;;;;;;6154778;23;20012;-73
2022/08/01 04:50:56;;;;;;;2.50;1.70;;;;;;;;;;6155197;23;20012;-73
2022/08/01 04:53:22;;;;;;;1.75;1.63;;;;;;;;;;6155114;23;20068;-73
2022/08/01 04:55:48;;;;;;;2.70;1.77;;;;;;;;;;6156735;23;20005;-73
2022/08/01 04:58:15;;;;;;;2.95;1.52;;;;;;;;;;6157142;23;20012;-73
2022/08/01 05:00:41;;;;;;;1.90;1.80;;;;;;;;;;6157130;23;20138;-73
2022/08/01 05:03:08;;;;;;;6.03;2.03;;;;;;;;;;6157136;23;20048;-72
2022/08/01 05:05:35;;;;;;;6.53;1.77;;;;;;;;;;6156736;23;20081;-73
2022/08/01 05:08:01;;;;;;;2.58;1.75;;;;;;;;;;6156975;23;20053;-73
2022/08/01 05:10:27;;;;;;;2.83;2.03;;;;;;;;;;6156727;23;20080;-73
2022/08/01 05:12:54;;;;;;;2.95;1.70;;;;;;;;;;6156724;23;20012;-73
2022/08/01 05:15:21;;;;;;;3.45;1.90;;;;;;;;;;6157139;23;20034;-73
2022/08/01 05:17:47;;;;;;;2.22;2.03;;;;;;;;;;6155902;23;20013;-73
2022/08/01 05:20:13;;;;;;;5.13;2.17;;;;;;;;;;6156618;23;20001;-73
2022/08/01 05:22:39;;;;;;;5.63;2.03;;;;;;;;;;6156447;23;20004;-73
2022/08/01 05:25:06;;;;;;;3.28;1.92;;;;;;;;;;6156043;23;20464;-73
2022/08/01 05:27:32;;;;;;;2.75;2.30;;;;;;;;;;6156188;23;20041;-70
2022/08/01 05:29:58;;;;;;;5.63;2.25;;;;;;;;;;6156196;23;20072;-70
2022/08/01 05:32:24;;;;;;;3.15;2.10;;;;;;;;;;6156231;23;20072;-69
2022/08/01 05:34:50;;;;;;;5.45;2.10;;;;;;;;;;6156076;23;20056;-69
2022/08/01 05:37:16;;;;;;;5.10;1.83;;;;;;;;;;6156473;23;20009;-69
2022/08/01 05:39:42;;;;;;;4.47;2.40;;;;;;;;;;6156151;23;20421;-69
2022/08/01 05:42:09;;;;;;;4.10;2.38;;;;;;;;;;6156385;23;20006;-70
2022/08/01 05:44:35;;;;;;;4.22;2.17;;;;;;;;;;6155826;23;20006;-69
2022/08/01 05:47:02;;;;;;;2.95;2.22;;;;;;;;;;6156007;23;20013;-70
2022/08/01 05:49:28;;;;;;;3.75;2.10;;;;;;;;;;6156258;23;20001;-70
2022/08/01 05:51:54;;;;;;;2.47;2.03;;;;;;;;;;6155954;23;20035;-70
2022/08/01 05:54:21;;;;;;;2.22;1.95;;;;;;;;;;6156370;23;20009;-70
2022/08/01 05:56:47;;;;;;;3.13;1.70;;;;;;;;;;6156070;23;20009;-69
2022/08/01 05:59:13;;;;;;;2.95;2.05;;;;;;;;;;6155853;23;20005;-69
2022/08/01 06:01:39;;;;;;;6.63;2.63;;;;;;;;;;6156418;23;20056;-68
2022/08/01 06:04:05;;;;;;;8.65;2.70;;;;;;;;;;6156312;23;20006;-68
2022/08/01 06:06:31;;;;;;;4.95;2.38;;;;;;;;;;6156497;23;20077;-68
2022/08/01 06:08:57;;;;;;;2.47;2.05;;;;;;;;;;6156246;23;20522;-68
2022/08/01 06:11:23;;;;;;;3.83;2.20;;;;;;;;;;6156146;23;20012;-68
2022/08/01 06:13:50;;;;;;;3.95;2.20;;;;;;;;;;6156176;23;20006;-68
2022/08/01 06:16:16;;;;;;;5.57;2.20;;;;;;;;;;6156065;23;20005;-68
2022/08/01 06:18:42;;;;;;;3.90;2.03;;;;;;;;;;6156372;23;20068;-68
2022/08/01 06:21:08;;;;;;;2.90;2.25;;;;;;;;;;6156423;23;20060;-68
2022/08/01 06:23:34;;;;;;;2.63;2.10;;;;;;;;;;6156008;23;20080;-68
2022/08/01 06:26:01;;;;;;;7.72;2.65;;;;;;;;;;6155553;23;20027;-68
2022/08/01 06:28:27;;;;;;;3.33;2.40;;;;;;;;;;6155922;23;20037;-68
2022/08/01 06:30:53;;;;;;;3.22;2.28;;;;;;;;;;6156041;23;20009;-66
2022/08/01 06:33:19;;;;;;;2.97;2.20;;;;;;;;;;6156204;23;20001;-66
2022/08/01 06:35:45;;;;;;;4.18;2.10;;;;;;;;;;6155822;23;20012;-66
2022/08/01 06:38:11;;;;;;;4.32;2.17;;;;;;;;;;6155869;23;20081;-66
2022/08/01 06:40:38;;;;;;;5.68;2.40;;;;;;;;;;6155913;23;20037;-68
2022/08/01 06:43:04;;;;;;;4.18;2.75;;;;;;;;;;6156090;23;20083;-68
2022/08/01 06:45:30;;;;;;;3.10;2.25;;;;;;;;;;6156404;23;20016;-68
2022/08/01 06:47:56;;;;;;;5.72;2.63;;;;;;;;;;6156093;23;20499;-68
2022/08/01 06:50:22;;;;;;;2.90;2.08;;;;;;;;;;6156124;23;20002;-68
2022/08/01 06:52:48;;;;;;;2.70;2.33;;;;;;;;;;6155812;23;20006;-68
2022/08/01 06:55:15;;;;;;;2.45;2.25;;;;;;;;;;6155554;23;20425;-68
2022/08/01 06:57:53;;;;;;;4.90;2.38;;;;;;;;;;6155732;23;20348;-68
2022/08/01 07:00:22;;;;;;;3.75;2.13;;;;;;;;;;6155597;23;20391;-68
2022/08/01 07:02:49;;;;;;;9.93;2.72;;;;;;;;;;6155995;23;20012;-68
2022/08/01 07:05:15;;;;;;;5.40;2.20;;;;;;;;;;6156125;23;19998;-68
2022/08/01 07:07:41;;;;;;;4.82;2.50;;;;;;;;;;6155864;23;20149;-68
2022/08/01 07:10:08;;;;;;;5.05;3.13;;;;;;;;;;6155334;23;20322;-68
2022/08/01 07:12:36;;;;;;;4.45;2.42;;;;;;;;;;6154598;23;20005;-68
2022/08/01 07:15:03;;;;;;;3.10;2.13;;;;;;;;;;6155540;23;20021;-68
2022/08/01 07:17:29;;;;;;;4.00;3.08;;;;;;;;;;6155662;23;20272;-68
2022/08/01 07:19:55;;;;;;;3.75;2.60;;;;;;;;;;6155655;23;20001;-68
2022/08/01 07:22:21;;;;;;;3.85;2.97;;;;;;;;;;6155294;23;20025;-68
2022/08/01 07:24:48;;;;;;;3.83;2.85;;;;;;;;;;6155508;23;20024;-68
2022/08/01 07:27:14;;;;;;;3.75;2.47;;;;;;;;;;6155357;23;20097;-68
2022/08/01 07:29:40;;;;;;;2.95;2.28;;;;;;;;;;6155638;23;20035;-68
2022/08/01 07:32:06;;;;;;;2.83;2.63;;;;;;;;;;6155418;23;20472;-68
2022/08/01 07:34:32;;;;;;;4.03;2.33;;;;;;;;;;6155923;23;20060;-68
2022/08/01 07:36:58;;;;;;;3.22;2.03;;;;;;;;;;6155569;23;20413;-68
2022/08/01 07:39:25;;;;;;;8.15;2.30;;;;;;;;;;6155425;23;20032;-68
2022/08/01 07:41:51;;;;;;;5.75;2.22;;;;;;;;;;6154816;23;20032;-68
2022/08/01 07:44:17;;;;;;;4.45;2.83;;;;;;;;;;6155443;23;20002;-68
2022/08/01 07:46:43;;;;;;;3.05;2.75;;;;;;;;;;6155487;23;20464;-68
2022/08/01 07:49:09;;;;;;;7.15;2.72;;;;;;;;;;6155171;23;20002;-68
2022/08/01 07:51:35;;;;;;;3.80;2.75;;;;;;;;;;6155158;23;20013;-68
2022/08/01 07:54:01;;;;;;;4.65;2.97;;;;;;;;;;6154414;23;20013;-68
2022/08/01 07:56:28;;;;;;;5.93;2.50;;;;;;;;;;6155288;23;20006;-68
2022/08/01 07:58:54;;;;;;;6.72;3.00;;;;;;;;;;6154870;23;20009;-68
2022/08/01 08:01:20;;;;;;;8.27;2.92;;;;;;;;;;6153738;23;20005;-68
2022/08/01 08:03:46;;;;;;;3.97;2.67;;;;;;;;;;6155234;23;20001;-68
2022/08/01 08:06:12;;;;;;;4.35;2.72;;;;;;;;;;6155098;23;20073;-68
2022/08/01 08:08:39;;;;;;;5.00;2.83;;;;;;;;;;6154645;23;20463;-68
2022/08/01 08:11:05;;;;;;;5.30;2.85;;;;;;;;;;6154868;23;20005;-68
2022/08/01 08:13:31;;;;;;;4.40;2.70;;;;;;;;;;6155356;23;19998;-68
2022/08/01 08:15:59;;;;;;;5.03;2.53;;;;;;;;;;6154527;23;20005;-68
2022/08/01 08:18:25;;;;;;;5.20;2.72;;;;;;;;;;6154945;23;20013;-68
2022/08/01 08:20:51;;;;;;;4.65;2.80;;;;;;;;;;6154705;23;19998;-68
2022/08/01 08:26:02;;;;;;;7.13;3.03;;;;;;;;;;6156693;23;20024;-68
2022/08/01 08:28:28;;;;;;;6.32;2.88;;;;;;;;;;6157219;23;20412;-68
2022/08/01 08:30:55;;;;;;;5.75;3.03;;;;;;;;;;6156593;23;20076;-68
2022/08/01 08:33:21;;;;;;;5.57;3.13;;;;;;;;;;6156599;23;20008;-68
2022/08/01 08:35:47;;;;;;;4.35;3.05;;;;;;;;;;6156870;23;20503;-68
2022/08/01 08:38:13;;;;;;;5.38;3.30;;;;;;;;;;6156724;23;20009;-68
2022/08/01 08:40:39;;;;;;;3.80;3.35;;;;;;;;;;6156176;23;20025;-68
2022/08/01 08:43:06;;;;;;;5.07;3.35;;;;;;;;;;6156602;23;20013;-68
2022/08/01 08:45:32;;;;;;;4.22;3.20;;;;;;;;;;6157226;23;19998;-68
2022/08/01 08:47:59;;;;;;;4.35;3.30;;;;;;;;;;6156875;23;20013;-68
2022/08/01 08:50:26;;;;;;;4.05;3.00;;;;;;;;;;6156629;23;20036;-68
2022/08/01 08:52:54;;;;;;;4.45;2.83;;;;;;;;;;6156941;23;20005;-68
2022/08/01 08:55:21;;;;;;;6.38;3.45;;;;;;;;;;6156002;23;20001;-68
2022/08/01 08:57:48;;;;;;;4.28;3.20;;;;;;;;;;6156173;23;20013;-68
2022/08/01 09:00:15;;;;;;;8.50;3.55;;;;;;;;;;6156861;23;20037;-68
2022/08/01 09:02:46;;;;;;;6.72;3.40;;;;;;;;;;6157165;23;20001;-68
2022/08/01 09:05:12;;;;;;;4.28;3.40;;;;;;;;;;6156224;23;20476;-68
2022/08/01 09:07:38;;;;;;;5.30;3.22;;;;;;;;;;6156425;23;20010;-68
2022/08/01 09:10:05;;;;;;;5.20;3.45;;;;;;;;;;6156329;23;20077;-68
2022/08/01 09:12:31;;;;;;;4.32;3.10;;;;;;;;;;6157216;23;20417;-68
2022/08/01 09:14:57;;;;;;;6.57;3.03;;;;;;;;;;6156918;23;20009;-68
2022/08/01 09:17:23;;;;;;;7.07;3.75;;;;;;;;;;6156486;23;20009;-68
2022/08/01 09:19:51;;;;;;;4.15;2.97;;;;;;;;;;6156455;23;20001;-68
2022/08/01 09:22:20;;;;;;;6.05;3.33;;;;;;;;;;6156383;23;20016;-68
2022/08/01 09:25:04;;;;;;;8.60;3.03;;;;;;;;;;6155353;23;20041;-68
2022/08/01 09:27:31;;;;;;;4.53;2.90;;;;;;;;;;6156667;23;20441;-68
2022/08/01 09:30:08;;;;;;;5.05;3.13;;;;;;;;;;6156515;23;20009;-68
2022/08/01 09:32:34;;;;;;;3.72;2.95;;;;;;;;;;6156164;23;20341;-68
2022/08/01 09:35:20;;;;;;;2.90;2.70;;;;;;;;;;6157110;23;20002;-68
2022/08/01 09:37:46;;;;;;;7.75;3.13;;;;;;;;;;6156993;23;20014;-68
2022/08/01 09:40:12;;;;;;;4.72;2.88;;;;;;;;;;6157037;23;20008;-68
2022/08/01 09:42:38;;;;;;;3.45;3.13;;;;;;;;;;6158121;23;20433;-69
2022/08/01 09:45:05;;;;;;;3.63;3.17;;;;;;;;;;6157363;23;19997;-69
2022/08/01 09:47:40;;;;;;;7.53;2.65;;;;;;;;;;6157840;23;20142;-69
2022/08/01 09:50:06;;;;;;;5.68;2.85;;;;;;;;;;6156783;23;20001;-69
2022/08/01 09:52:33;;;;;;;5.03;2.60;;;;;;;;;;6157159;23;20006;-68
2022/08/01 09:55:00;;;;;;;3.92;3.10;;;;;;;;;;6157011;23;20076;-69
2022/08/01 09:57:27;;;;;;;7.95;2.80;;;;;;;;;;6157801;23;20018;-69
2022/08/01 09:59:54;;;;;;;5.18;2.80;;;;;;;;;;6157023;23;20001;-68
2022/08/01 10:02:31;;;;;;;6.07;2.80;;;;;;;;;;6157251;23;20098;-69
2022/08/01 10:04:57;;;;;;;3.55;2.67;;;;;;;;;;6158239;23;20012;-69
2022/08/01 10:07:23;;;;;;;2.88;2.60;;;;;;;;;;6157173;23;20041;-69
2022/08/01 10:09:49;;;;;;;4.18;2.40;;;;;;;;;;6157294;23;20005;-69
2022/08/01 10:12:18;;;;;;;5.32;2.40;;;;;;;;;;6157725;23;20005;-69
2022/08/01 10:14:45;;;;;;;3.80;2.15;;;;;;;;;;6157618;23;20060;-69
2022/08/01 10:17:13;;;;;;;1.98;1.80;;;;;;;;;;6157691;23;20039;-69
2022/08/01 10:19:41;;;;;;;4.40;2.20;;;;;;;;;;6157509;23;20008;-69
2022/08/01 10:22:10;;;;;;;2.20;2.00;;;;;;;;;;6157099;23;20081;-69
2022/08/01 10:24:39;;;;;;;2.07;1.70;;;;;;;;;;6156726;23;20463;-69
2022/08/01 10:27:07;;;;;;;4.35;2.20;;;;;;;;;;6156521;23;20006;-69
2022/08/01 10:29:51;;;;;;;4.72;2.15;;;;;;;;;;6156934;23;20375;-69
2022/08/01 10:32:18;;;;;;;3.53;2.22;;;;;;;;;;6156991;23;20005;-69
2022/08/01 10:34:44;;;;;;;4.75;2.45;;;;;;;;;;6157037;23;20499;-69
2022/08/01 10:37:14;;;;;;;3.97;2.58;;;;;;;;;;6157167;23;20031;-69
2022/08/01 10:39:40;;;;;;;2.50;2.17;;;;;;;;;;6156978;23;20056;-69
2022/08/01 10:42:06;;;;;;;3.88;2.55;;;;;;;;;;6155570;23;20027;-69
2022/08/01 10:44:33;;;;;;;3.55;2.00;;;;;;;;;;6157003;23;20006;-69
2022/08/01 10:47:05;;;;;;;4.07;2.30;;;;;;;;;;6157145;23;20421;-68
2022/08/01 10:49:35;;;;;;;4.13;1.90;;;;;;;;;;6156121;23;20006;-69
2022/08/01 10:52:01;;;;;;;;;;;;;;;;;;6157330;23;20448;-69
2022/08/01 10:54:27;;;;;;;3.15;2.03;;;;;;;;;;6157089;23;19915;-69
2022/08/01 10:56:56;;;;;;;4.75;2.13;;;;;;;;;;6156771;23;20002;-69
2022/08/01 10:59:29;;;;;;;1.90;1.77;;;;;;;;;;6156571;23;20007;-69
2022/08/01 11:01:58;;;;;;;3.38;2.08;;;;;;;;;;6157063;23;20005;-69
2022/08/01 11:04:32;;;;;;;2.33;2.00;;;;;;;;;;6156550;23;20008;-69
2022/08/01 11:07:06;;;;;;;2.92;1.88;;;;;;;;;;6156753;23;20005;-68
2022/08/01 11:09:39;;;;;;;3.35;1.83;;;;;;;;;;6156798;23;19998;-68
2022/08/01 11:12:09;;;;;;;2.80;2.20;;;;;;;;;;6156788;23;20007;-69
2022/08/01 11:14:55;;;;;;;4.07;1.88;;;;;;;;;;6156618;23;20005;-69
2022/08/01 11:17:34;;;;;;;1.63;1.40;;;;;;;;;;6156088;23;20429;-68
2022/08/01 11:20:07;;;;;;;2.65;1.73;;;;;;;;;;6156302;23;19997;-68
2022/08/01 11:22:54;;;;;;;3.42;1.50;;;;;;;;;;6156577;23;20009;-70
2022/08/01 11:25:20;;;;;;;2.95;1.70;;;;;;;;;;6155674;23;20018;-67
2022/08/01 11:27:46;;;;;;;2.30;1.50;;;;;;;;;;6156219;23;20014;-66
2022/08/01 11:30:12;;;;;;;3.75;1.92;;;;;;;;;;6156535;23;20487;-67
2022/08/01 11:32:48;;;;;;;2.33;1.88;;;;;;;;;;6156462;23;20105;-67
2022/08/01 11:35:14;;;;;;;5.95;1.70;;;;;;;;;;6156952;23;20002;-68
2022/08/01 11:37:40;;;;;;;3.20;1.50;;;;;;;;;;6157255;23;20035;-68
2022/08/01 11:40:23;;;;;;;2.05;1.60;;;;;;;;;;6155956;23;20009;-68
2022/08/01 11:42:50;;;;;;;1.85;1.30;;;;;;;;;;6156201;23;20076;-68
2022/08/01 11:45:24;;;;;;;4.53;1.98;;;;;;;;;;6156844;23;20001;-68
2022/08/01 11:47:51;;;;;;;2.40;1.90;;;;;;;;;;6155900;23;20013;-68
2022/08/01 11:50:29;;;;;;;3.47;1.90;;;;;;;;;;6156413;23;20012;-69
2022/08/01 11:53:00;;;;;;;2.28;1.38;;;;;;;;;;6156539;23;20010;-68
2022/08/01 11:55:28;;;;;;;7.68;1.98;;;;;;;;;;6156284;23;20077;-69
2022/08/01 11:58:20;;;;;;;2.28;1.63;;;;;;;;;;6156224;23;20478;-69
2022/08/01 12:00:56;;;;;;;3.53;1.88;;;;;;;;;;6152227;23;20079;-67
2022/08/01 12:03:27;;;;;;;7.35;1.95;;;;;;;;;;6156244;23;20076;-69
2022/08/01 12:05:53;;;;;;;;;;;;;;;;;;6156689;23;20001;-68
2022/08/01 12:08:29;;;;;;;2.38;1.50;;;;;;;;;;6156149;23;19913;-69
2022/08/01 12:10:55;;;;;;;2.92;1.85;;;;;;;;;;6155717;23;20012;-69
2022/08/01 12:13:22;;;;;;;3.90;1.85;;;;;;;;;;6155865;23;20008;-66
2022/08/01 12:15:50;;;;;;;3.65;1.67;;;;;;;;;;6156082;23;20009;-67
2022/08/01 12:18:16;;;;;;;4.05;2.00;;;;;;;;;;6156334;23;20016;-67
2022/08/01 12:20:43;;;;;;;2.50;1.80;;;;;;;;;;6155955;23;20010;-66
2022/08/01 12:23:12;;;;;;;5.50;2.35;;;;;;;;;;6155524;23;20005;-67
2022/08/01 12:25:40;;;;;;;2.50;1.75;;;;;;;;;;6156113;23;20021;-67
2022/08/01 12:28:07;;;;;;;6.80;1.80;;;;;;;;;;6155878;23;20076;-67
2022/08/01 12:30:35;;;;;;;4.35;1.45;;;;;;;;;;6156128;23;20429;-69
2022/08/01 12:33:01;;;;;;;3.65;1.20;;;;;;;;;;6155954;23;20017;-69
2022/08/01 12:35:29;;;;;;;4.82;2.05;;;;;;;;;;6155845;23;20085;-69
2022/08/01 12:37:57;;;;;;;2.20;1.60;;;;;;;;;;6155982;23;20009;-69
2022/08/01 12:40:24;;;;;;;3.10;1.60;;;;;;;;;;6155548;23;19997;-69
2022/08/01 12:42:52;;;;;;;3.67;1.70;;;;;;;;;;6156425;23;20005;-69
2022/08/01 12:45:25;;;;;;;3.22;1.42;;;;;;;;;;6156281;23;20059;-69
2022/08/01 12:47:52;;;;;;;1.60;1.30;;;;;;;;;;6156111;23;20017;-69
2022/08/01 12:50:22;;;;;;;1.58;1.35;;;;;;;;;;6156021;23;19998;-69
2022/08/01 12:52:49;;;;;;;3.20;1.50;;;;;;;;;;6156321;23;20433;-69
2022/08/01 12:55:18;;;;;;;5.78;2.03;;;;;;;;;;6156189;23;20002;-69
2022/08/01 12:57:49;;;;;;;5.32;1.67;;;;;;;;;;6155782;23;20023;-69
2022/08/01 13:00:26;;;;;;;3.33;1.77;;;;;;;;;;6150055;23;20333;-69
2022/08/01 13:03:03;;;;;;;2.83;1.30;;;;;;;;;;6154456;23;20002;-69
2022/08/01 13:05:40;;;;;;;2.00;1.67;;;;;;;;;;6153778;23;20006;-69
2022/08/01 13:08:10;;;;;;;1.58;1.30;;;;;;;;;;6152178;23;20445;-69
2022/08/01 13:10:36;;;;;;;2.00;1.48;;;;;;;;;;6153055;23;20024;-69
2022/08/01 13:13:03;;;;;;;4.30;1.50;;;;;;;;;;6150692;23;20029;-69
2022/08/01 13:15:34;;;;;;;2.30;1.50;;;;;;;;;;6155418;23;20010;-69
2022/08/01 13:18:01;;;;;;;3.05;1.40;;;;;;;;;;6156562;23;20010;-69
2022/08/01 13:20:30;;;;;;;5.45;1.50;;;;;;;;;;6157550;23;20007;-69
2022/08/01 13:22:56;;;;;;;1.50;1.38;;;;;;;;;;6157774;23;20005;-68
2022/08/01 13:25:22;;;;;;;1.55;1.45;;;;;;;;;;6156827;23;20017;-69
2022/08/01 13:27:49;;;;;;;3.08;1.80;;;;;;;;;;6157476;23;20010;-69
2022/08/01 13:30:16;;;;;;;2.75;1.50;;;;;;;;;;6157453;23;20052;-69
2022/08/01 13:32:43;;;;;;;5.13;1.55;;;;;;;;;;6157577;23;20085;-69
2022/08/01 13:35:11;;;;;;;2.65;1.35;;;;;;;;;;6156773;23;20059;-70
2022/08/01 13:37:39;;;;;;;5.13;1.65;;;;;;;;;;6157345;23;20013;-72
2022/08/01 13:40:05;;;;;;;3.20;1.58;;;;;;;;;;6157406;23;20002;-70
2022/08/01 13:42:32;;;;;;;3.42;1.50;;;;;;;;;;6157255;23;20002;-71
2022/08/01 13:44:58;;;;;;;1.77;1.40;;;;;;;;;;6156502;23;20005;-70
2022/08/01 13:47:24;;;;;;;3.63;1.50;;;;;;;;;;6156415;23;20072;-70
2022/08/01 13:49:50;;;;;;;3.63;1.67;;;;;;;;;;6157170;23;20008;-70
2022/08/01 13:52:16;;;;;;;2.88;1.50;;;;;;;;;;6157632;23;20029;-70
2022/08/01 13:54:42;;;;;;;2.10;1.50;;;;;;;;;;6157599;23;20032;-70
2022/08/01 13:57:09;;;;;;;2.53;1.52;;;;;;;;;;6157581;23;20029;-70
2022/08/01 13:59:35;;;;;;;1.80;1.48;;;;;;;;;;6157083;23;20002;-73
2022/08/01 14:02:01;;;;;;;2.55;1.50;;;;;;;;;;6157521;23;20005;-72
2022/08/01 14:04:28;;;;;;;1.77;1.40;;;;;;;;;;6157085;23;20073;-71
2022/08/01 14:06:54;;;;;;;3.15;1.60;;;;;;;;;;6157412;23;20421;-71
2022/08/01 14:09:22;;;;;;;2.00;1.33;;;;;;;;;;6156421;23;20444;-71
2022/08/01 14:11:49;;;;;;;2.70;1.40;;;;;;;;;;6157035;23;20002;-71
2022/08/01 14:14:15;;;;;;;1.85;1.40;;;;;;;;;;6157662;23;20028;-71
2022/08/01 14:16:44;;;;;;;2.63;1.50;;;;;;;;;;6157194;23;20012;-69
2022/08/01 14:19:10;;;;;;;2.22;1.50;;;;;;;;;;6157712;23;20009;-69
2022/08/01 14:21:36;;;;;;;1.67;1.02;;;;;;;;;;6157717;23;20033;-70
2022/08/01 14:24:03;;;;;;;1.83;1.20;;;;;;;;;;6157852;23;20133;-70
2022/08/01 14:26:29;;;;;;;3.67;1.20;;;;;;;;;;6157571;23;20005;-69
2022/08/01 14:28:55;;;;;;;5.30;1.38;;;;;;;;;;6157266;23;20076;-70
2022/08/01 14:31:21;;;;;;;2.00;1.05;;;;;;;;;;6157413;23;20475;-69
2022/08/01 14:33:47;;;;;;;3.28;1.20;;;;;;;;;;6157916;23;20080;-69
2022/08/01 14:36:13;;;;;;;1.48;1.23;;;;;;;;;;6157201;23;20005;-69
2022/08/01 14:38:39;;;;;;;1.58;1.45;;;;;;;;;;6158345;23;20015;-69
2022/08/01 14:41:05;;;;;;;3.72;1.05;;;;;;;;;;6157061;23;20005;-70
2022/08/01 14:43:32;;;;;;;2.55;1.10;;;;;;;;;;6157301;23;20002;-70
2022/08/01 14:45:58;;;;;;;1.17;1.08;;;;;;;;;;6157720;23;20005;-69
2022/08/01 14:48:25;;;;;;;2.17;1.50;;;;;;;;;;6157369;23;20071;-70
2022/08/01 14:50:51;;;;;;;4.50;1.20;;;;;;;;;;6157083;23;20085;-70
2022/08/01 14:53:17;;;;;;;2.90;1.30;;;;;;;;;;6157691;23;20051;-70
2022/08/01 14:55:44;;;;;;;2.58;1.40;;;;;;;;;;6157305;23;20002;-70